METAR Analyzer

一覧表示

Hello, Guest. (Login)

WADD/DPS  -  バリ/デンパサール/ングラ・ライ

観測日時
2021-01-27 16:30 (UTC) (48分前)
気温
27
露点
25
湿数
2
相対湿度
88.8%
QNH
1007hPa
推定現地気圧
1006.5hPa
推定海面気圧
1007.0hPa
体感温度
22.4
(無風時)
27.2
HI
30.9
気温前日比
+1
体感温度前日比
+1.8
HI前日比
+3.9
水平視程
>10000m
鉛直視程
データなし
雲底高度
No dense clouds
V/I
VMC (VFR)
RVR
No RVR data
卓越風
8kt from 310°
ガスト
No gust
降水
報告なし
その他の天気
報告なし
散在する雲 @ 1600ft AGL

WADD 271630Z 31008KT 9999 SCT016 27/25 Q1007 NOSIG

株式会社マネーパートナーズ 【Manepa Card】

RPLL/MNL  -  マニラ/ニノイ・アキノ

観測日時
2021-01-27 17:00 (UTC) (18分前)
気温
25
露点
24
湿数
1
相対湿度
94.2%
QNH
1010.8hPa
推定現地気圧
1008.0hPa
推定海面気圧
1010.7hPa
体感温度
25.8
(無風時)
25.8
HI
26
気温前日比
-1
体感温度前日比
+3.5
HI前日比
-1
水平視程
>10000m
鉛直視程
データなし
雲底高度
No dense clouds
V/I
VMC (VFR)
RVR
No RVR data
卓越風
静穏
ガスト
No gust
降水
報告なし
その他の天気
報告なし
少しの雲 @ 2500ft AGL / 散在する雲 @ 10000ft AGL

RPLL 271700Z 00000KT 9999 FEW025 SCT100 25/24 Q1011 NOSIG RMK A2985

VTBS/BKK  -  バンコク/スワンナプーム

観測日時
2021-01-27 17:00 (UTC) (18分前)
気温
27
露点
25
湿数
2
相対湿度
88.8%
QNH
1012hPa
推定現地気圧
1011.8hPa
推定海面気圧
1012.0hPa
体感温度
22.6
(無風時)
27.2
HI
30.9
気温前日比
+1
体感温度前日比
+0.4
HI前日比
+3.8
水平視程
7000m
鉛直視程
データなし
雲底高度
No dense clouds
V/I
VMC (VFR)
RVR
No RVR data
卓越風
7kt from 190°
ガスト
No gust
降水
報告なし
その他の天気
報告なし
少しの雲 @ 3000ft AGL

VTBS 271700Z 19007KT 7000 FEW030 27/25 Q1012 NOSIG

11.4msec